sensor_id;sensor_type;location;lat;lon;timestamp;P1;durP1;ratioP1;P2;durP2;ratioP2
18693;SDS011;9477;51.414;10.362;2022-07-29T00:01:15;4.43;;;1.40;;
18693;SDS011;9477;51.414;10.362;2022-07-29T00:03:21;6.33;;;1.50;;
18693;SDS011;9477;51.414;10.362;2022-07-29T00:05:24;4.53;;;1.47;;
18693;SDS011;9477;51.414;10.362;2022-07-29T00:07:27;5.60;;;1.57;;
18693;SDS011;9477;51.414;10.362;2022-07-29T00:09:30;4.37;;;1.27;;
18693;SDS011;9477;51.414;10.362;2022-07-29T00:11:42;5.70;;;1.73;;
18693;SDS011;9477;51.414;10.362;2022-07-29T00:13:44;4.97;;;1.30;;
18693;SDS011;9477;51.414;10.362;2022-07-29T00:15:51;5.77;;;1.30;;
18693;SDS011;9477;51.414;10.362;2022-07-29T00:17:54;7.10;;;1.47;;
18693;SDS011;9477;51.414;10.362;2022-07-29T00:19:58;3.20;;;1.40;;
18693;SDS011;9477;51.414;10.362;2022-07-29T00:22:00;5.43;;;1.33;;
18693;SDS011;9477;51.414;10.362;2022-07-29T00:24:03;5.57;;;1.60;;
18693;SDS011;9477;51.414;10.362;2022-07-29T00:26:06;3.13;;;1.33;;
18693;SDS011;9477;51.414;10.362;2022-07-29T00:28:09;3.63;;;1.23;;
18693;SDS011;9477;51.414;10.362;2022-07-29T00:30:12;6.50;;;1.53;;
18693;SDS011;9477;51.414;10.362;2022-07-29T00:32:15;5.37;;;1.57;;
18693;SDS011;9477;51.414;10.362;2022-07-29T00:34:18;3.57;;;1.40;;
18693;SDS011;9477;51.414;10.362;2022-07-29T00:36:39;6.40;;;1.40;;
18693;SDS011;9477;51.414;10.362;2022-07-29T00:38:42;2.60;;;1.37;;
18693;SDS011;9477;51.414;10.362;2022-07-29T00:40:46;3.57;;;1.40;;
18693;SDS011;9477;51.414;10.362;2022-07-29T00:42:50;3.63;;;1.20;;
18693;SDS011;9477;51.414;10.362;2022-07-29T00:44:53;7.53;;;1.27;;
18693;SDS011;9477;51.414;10.362;2022-07-29T00:46:56;3.53;;;1.30;;
18693;SDS011;9477;51.414;10.362;2022-07-29T00:48:59;6.47;;;1.50;;
18693;SDS011;9477;51.414;10.362;2022-07-29T00:51:02;5.27;;;1.50;;
18693;SDS011;9477;51.414;10.362;2022-07-29T00:53:07;7.17;;;1.60;;
18693;SDS011;9477;51.414;10.362;2022-07-29T00:55:11;4.17;;;1.20;;
18693;SDS011;9477;51.414;10.362;2022-07-29T00:57:14;2.90;;;1.30;;
18693;SDS011;9477;51.414;10.362;2022-07-29T00:59:17;5.87;;;1.57;;
18693;SDS011;9477;51.414;10.362;2022-07-29T01:01:20;4.90;;;1.40;;
18693;SDS011;9477;51.414;10.362;2022-07-29T01:03:23;2.60;;;1.30;;
18693;SDS011;9477;51.414;10.362;2022-07-29T01:05:26;7.40;;;1.50;;
18693;SDS011;9477;51.414;10.362;2022-07-29T01:07:51;4.03;;;1.23;;
18693;SDS011;9477;51.414;10.362;2022-07-29T01:09:56;5.13;;;1.63;;
18693;SDS011;9477;51.414;10.362;2022-07-29T01:12:01;4.07;;;1.33;;
18693;SDS011;9477;51.414;10.362;2022-07-29T01:14:05;10.53;;;1.50;;
18693;SDS011;9477;51.414;10.362;2022-07-29T01:16:10;8.03;;;1.37;;
18693;SDS011;9477;51.414;10.362;2022-07-29T01:18:18;4.23;;;1.30;;
18693;SDS011;9477;51.414;10.362;2022-07-29T01:20:26;5.03;;;1.50;;
18693;SDS011;9477;51.414;10.362;2022-07-29T01:22:47;5.47;;;1.60;;
18693;SDS011;9477;51.414;10.362;2022-07-29T01:25:19;4.80;;;1.53;;
18693;SDS011;9477;51.414;10.362;2022-07-29T01:27:38;5.43;;;1.50;;
18693;SDS011;9477;51.414;10.362;2022-07-29T01:29:52;7.30;;;1.50;;
18693;SDS011;9477;51.414;10.362;2022-07-29T01:31:58;3.87;;;1.40;;
18693;SDS011;9477;51.414;10.362;2022-07-29T01:34:07;6.30;;;1.40;;
18693;SDS011;9477;51.414;10.362;2022-07-29T01:36:14;5.43;;;1.37;;
18693;SDS011;9477;51.414;10.362;2022-07-29T01:38:21;4.20;;;1.50;;
18693;SDS011;9477;51.414;10.362;2022-07-29T01:40:28;6.03;;;1.30;;
18693;SDS011;9477;51.414;10.362;2022-07-29T01:42:37;5.37;;;1.60;;
18693;SDS011;9477;51.414;10.362;2022-07-29T01:44:46;6.87;;;1.73;;
18693;SDS011;9477;51.414;10.362;2022-07-29T01:46:58;1.83;;;1.20;;
18693;SDS011;9477;51.414;10.362;2022-07-29T01:49:05;2.60;;;1.30;;
18693;SDS011;9477;51.414;10.362;2022-07-29T01:51:13;6.53;;;1.80;;
18693;SDS011;9477;51.414;10.362;2022-07-29T01:53:21;3.10;;;1.50;;
18693;SDS011;9477;51.414;10.362;2022-07-29T01:55:38;4.30;;;1.27;;
18693;SDS011;9477;51.414;10.362;2022-07-29T01:57:46;4.13;;;1.40;;
18693;SDS011;9477;51.414;10.362;2022-07-29T01:59:50;5.00;;;1.53;;
18693;SDS011;9477;51.414;10.362;2022-07-29T02:01:54;3.20;;;1.50;;
18693;SDS011;9477;51.414;10.362;2022-07-29T02:04:01;6.30;;;1.50;;
18693;SDS011;9477;51.414;10.362;2022-07-29T02:06:06;5.20;;;1.57;;
18693;SDS011;9477;51.414;10.362;2022-07-29T02:08:11;4.00;;;1.30;;
18693;SDS011;9477;51.414;10.362;2022-07-29T02:10:16;9.83;;;1.70;;
18693;SDS011;9477;51.414;10.362;2022-07-29T02:12:26;6.03;;;1.70;;
18693;SDS011;9477;51.414;10.362;2022-07-29T02:14:33;4.80;;;1.30;;
18693;SDS011;9477;51.414;10.362;2022-07-29T02:16:38;4.80;;;1.50;;
18693;SDS011;9477;51.414;10.362;2022-07-29T02:18:44;3.17;;;1.43;;
18693;SDS011;9477;51.414;10.362;2022-07-29T02:20:50;9.10;;;1.50;;
18693;SDS011;9477;51.414;10.362;2022-07-29T02:22:56;5.00;;;1.47;;
18693;SDS011;9477;51.414;10.362;2022-07-29T02:25:00;3.83;;;1.40;;
18693;SDS011;9477;51.414;10.362;2022-07-29T02:27:04;6.03;;;1.40;;
18693;SDS011;9477;51.414;10.362;2022-07-29T02:29:07;6.00;;;1.53;;
18693;SDS011;9477;51.414;10.362;2022-07-29T02:31:11;4.87;;;1.33;;
18693;SDS011;9477;51.414;10.362;2022-07-29T02:33:15;4.20;;;1.40;;
18693;SDS011;9477;51.414;10.362;2022-07-29T02:35:21;2.77;;;1.20;;
18693;SDS011;9477;51.414;10.362;2022-07-29T02:37:25;4.80;;;1.60;;
18693;SDS011;9477;51.414;10.362;2022-07-29T02:39:30;6.13;;;1.30;;
18693;SDS011;9477;51.414;10.362;2022-07-29T02:41:37;4.90;;;1.37;;
18693;SDS011;9477;51.414;10.362;2022-07-29T02:43:45;5.30;;;1.70;;
18693;SDS011;9477;51.414;10.362;2022-07-29T02:45:51;5.60;;;1.60;;
18693;SDS011;9477;51.414;10.362;2022-07-29T02:47:57;3.17;;;1.47;;
18693;SDS011;9477;51.414;10.362;2022-07-29T02:50:02;4.50;;;1.60;;
18693;SDS011;9477;51.414;10.362;2022-07-29T02:52:12;4.03;;;1.50;;
18693;SDS011;9477;51.414;10.362;2022-07-29T02:54:22;5.70;;;1.40;;
18693;SDS011;9477;51.414;10.362;2022-07-29T02:56:28;2.93;;;1.40;;
18693;SDS011;9477;51.414;10.362;2022-07-29T02:58:37;3.70;;;1.47;;
18693;SDS011;9477;51.414;10.362;2022-07-29T03:00:42;8.77;;;1.70;;
18693;SDS011;9477;51.414;10.362;2022-07-29T03:02:50;3.07;;;1.30;;
18693;SDS011;9477;51.414;10.362;2022-07-29T03:04:54;4.97;;;1.60;;
18693;SDS011;9477;51.414;10.362;2022-07-29T03:07:01;5.87;;;1.60;;
18693;SDS011;9477;51.414;10.362;2022-07-29T03:09:07;5.60;;;1.50;;
18693;SDS011;9477;51.414;10.362;2022-07-29T03:11:13;3.47;;;1.70;;
18693;SDS011;9477;51.414;10.362;2022-07-29T03:13:18;6.93;;;1.70;;
18693;SDS011;9477;51.414;10.362;2022-07-29T03:15:22;3.37;;;1.30;;
18693;SDS011;9477;51.414;10.362;2022-07-29T03:17:25;2.40;;;1.57;;
18693;SDS011;9477;51.414;10.362;2022-07-29T03:19:28;5.57;;;1.73;;
18693;SDS011;9477;51.414;10.362;2022-07-29T03:21:31;8.10;;;1.50;;
18693;SDS011;9477;51.414;10.362;2022-07-29T03:23:34;4.83;;;1.73;;
18693;SDS011;9477;51.414;10.362;2022-07-29T03:25:38;5.73;;;1.57;;
18693;SDS011;9477;51.414;10.362;2022-07-29T03:27:41;5.30;;;1.70;;
18693;SDS011;9477;51.414;10.362;2022-07-29T03:29:44;3.07;;;1.30;;
18693;SDS011;9477;51.414;10.362;2022-07-29T03:31:50;4.27;;;1.30;;
18693;SDS011;9477;51.414;10.362;2022-07-29T03:33:53;6.67;;;1.60;;
18693;SDS011;9477;51.414;10.362;2022-07-29T03:35:56;2.87;;;1.37;;
18693;SDS011;9477;51.414;10.362;2022-07-29T03:37:59;6.07;;;1.70;;
18693;SDS011;9477;51.414;10.362;2022-07-29T03:40:02;5.80;;;1.50;;
18693;SDS011;9477;51.414;10.362;2022-07-29T03:42:12;6.97;;;1.53;;
18693;SDS011;9477;51.414;10.362;2022-07-29T03:44:17;5.40;;;1.60;;
18693;SDS011;9477;51.414;10.362;2022-07-29T03:46:22;4.57;;;1.40;;
18693;SDS011;9477;51.414;10.362;2022-07-29T03:48:28;5.70;;;1.50;;
18693;SDS011;9477;51.414;10.362;2022-07-29T03:50:35;6.00;;;1.30;;
18693;SDS011;9477;51.414;10.362;2022-07-29T03:52:38;5.40;;;1.30;;
18693;SDS011;9477;51.414;10.362;2022-07-29T03:54:45;3.10;;;1.37;;
18693;SDS011;9477;51.414;10.362;2022-07-29T03:56:48;4.57;;;1.27;;
18693;SDS011;9477;51.414;10.362;2022-07-29T03:58:54;6.00;;;1.60;;
18693;SDS011;9477;51.414;10.362;2022-07-29T04:00:58;5.00;;;1.43;;
18693;SDS011;9477;51.414;10.362;2022-07-29T04:03:01;9.33;;;1.70;;
18693;SDS011;9477;51.414;10.362;2022-07-29T04:05:11;6.23;;;1.40;;
18693;SDS011;9477;51.414;10.362;2022-07-29T04:07:14;6.20;;;1.53;;
18693;SDS011;9477;51.414;10.362;2022-07-29T04:09:17;6.67;;;1.47;;
18693;SDS011;9477;51.414;10.362;2022-07-29T04:11:20;6.13;;;1.60;;
18693;SDS011;9477;51.414;10.362;2022-07-29T04:13:23;5.03;;;1.73;;
18693;SDS011;9477;51.414;10.362;2022-07-29T04:15:27;5.33;;;1.47;;
18693;SDS011;9477;51.414;10.362;2022-07-29T04:17:31;5.27;;;1.53;;
18693;SDS011;9477;51.414;10.362;2022-07-29T04:19:35;4.90;;;1.50;;
18693;SDS011;9477;51.414;10.362;2022-07-29T04:21:38;4.97;;;1.43;;
18693;SDS011;9477;51.414;10.362;2022-07-29T04:23:40;5.37;;;1.60;;
18693;SDS011;9477;51.414;10.362;2022-07-29T04:25:54;3.20;;;1.50;;
18693;SDS011;9477;51.414;10.362;2022-07-29T04:27:57;8.63;;;1.83;;
18693;SDS011;9477;51.414;10.362;2022-07-29T04:30:02;6.30;;;1.60;;
18693;SDS011;9477;51.414;10.362;2022-07-29T04:32:07;7.07;;;1.63;;
18693;SDS011;9477;51.414;10.362;2022-07-29T04:34:10;6.57;;;1.60;;
18693;SDS011;9477;51.414;10.362;2022-07-29T04:36:14;3.10;;;1.47;;
18693;SDS011;9477;51.414;10.362;2022-07-29T04:38:29;3.57;;;1.47;;
18693;SDS011;9477;51.414;10.362;2022-07-29T04:40:33;6.57;;;1.67;;
18693;SDS011;9477;51.414;10.362;2022-07-29T04:42:38;7.83;;;1.50;;
18693;SDS011;9477;51.414;10.362;2022-07-29T04:44:47;5.43;;;1.70;;
18693;SDS011;9477;51.414;10.362;2022-07-29T04:46:50;8.77;;;1.60;;
18693;SDS011;9477;51.414;10.362;2022-07-29T04:48:54;5.90;;;1.57;;
18693;SDS011;9477;51.414;10.362;2022-07-29T04:50:57;8.57;;;1.97;;
18693;SDS011;9477;51.414;10.362;2022-07-29T04:53:00;5.80;;;1.30;;
18693;SDS011;9477;51.414;10.362;2022-07-29T04:55:03;4.53;;;1.60;;
18693;SDS011;9477;51.414;10.362;2022-07-29T04:57:07;6.23;;;1.60;;
18693;SDS011;9477;51.414;10.362;2022-07-29T04:59:10;7.30;;;1.90;;
18693;SDS011;9477;51.414;10.362;2022-07-29T05:01:13;10.03;;;1.80;;
18693;SDS011;9477;51.414;10.362;2022-07-29T05:03:16;4.87;;;1.57;;
18693;SDS011;9477;51.414;10.362;2022-07-29T05:05:20;5.53;;;1.60;;
18693;SDS011;9477;51.414;10.362;2022-07-29T05:07:23;4.30;;;1.43;;
18693;SDS011;9477;51.414;10.362;2022-07-29T05:09:26;4.03;;;1.50;;
18693;SDS011;9477;51.414;10.362;2022-07-29T05:11:29;5.67;;;1.60;;
18693;SDS011;9477;51.414;10.362;2022-07-29T05:13:31;6.53;;;1.63;;
18693;SDS011;9477;51.414;10.362;2022-07-29T05:15:46;5.10;;;1.77;;
18693;SDS011;9477;51.414;10.362;2022-07-29T05:17:49;6.97;;;1.47;;
18693;SDS011;9477;51.414;10.362;2022-07-29T05:19:51;3.47;;;1.80;;
18693;SDS011;9477;51.414;10.362;2022-07-29T05:21:56;7.80;;;1.50;;
18693;SDS011;9477;51.414;10.362;2022-07-29T05:23:58;3.73;;;1.73;;
18693;SDS011;9477;51.414;10.362;2022-07-29T05:26:01;5.40;;;1.53;;
18693;SDS011;9477;51.414;10.362;2022-07-29T05:28:04;5.33;;;1.63;;
18693;SDS011;9477;51.414;10.362;2022-07-29T05:30:07;7.17;;;1.80;;
18693;SDS011;9477;51.414;10.362;2022-07-29T05:32:11;7.20;;;1.63;;
18693;SDS011;9477;51.414;10.362;2022-07-29T05:34:13;2.93;;;1.40;;
18693;SDS011;9477;51.414;10.362;2022-07-29T05:36:17;3.40;;;1.40;;
18693;SDS011;9477;51.414;10.362;2022-07-29T05:38:21;5.83;;;1.50;;
18693;SDS011;9477;51.414;10.362;2022-07-29T05:40:24;9.30;;;1.70;;
18693;SDS011;9477;51.414;10.362;2022-07-29T05:42:27;5.63;;;1.63;;
18693;SDS011;9477;51.414;10.362;2022-07-29T05:44:30;4.97;;;1.60;;
18693;SDS011;9477;51.414;10.362;2022-07-29T05:46:37;8.20;;;1.73;;
18693;SDS011;9477;51.414;10.362;2022-07-29T05:48:41;7.27;;;1.80;;
18693;SDS011;9477;51.414;10.362;2022-07-29T05:50:43;4.33;;;1.57;;
18693;SDS011;9477;51.414;10.362;2022-07-29T05:52:46;7.73;;;1.83;;
18693;SDS011;9477;51.414;10.362;2022-07-29T05:54:51;5.70;;;1.67;;
18693;SDS011;9477;51.414;10.362;2022-07-29T05:56:54;4.70;;;1.90;;
18693;SDS011;9477;51.414;10.362;2022-07-29T05:58:56;5.80;;;1.50;;
18693;SDS011;9477;51.414;10.362;2022-07-29T06:00:59;6.50;;;1.77;;
18693;SDS011;9477;51.414;10.362;2022-07-29T06:03:02;8.53;;;1.90;;
18693;SDS011;9477;51.414;10.362;2022-07-29T06:05:05;5.77;;;1.60;;
18693;SDS011;9477;51.414;10.362;2022-07-29T06:07:17;4.80;;;1.70;;
18693;SDS011;9477;51.414;10.362;2022-07-29T06:09:20;10.13;;;2.03;;
18693;SDS011;9477;51.414;10.362;2022-07-29T06:11:25;2.90;;;1.60;;
18693;SDS011;9477;51.414;10.362;2022-07-29T06:13:28;4.27;;;1.80;;
18693;SDS011;9477;51.414;10.362;2022-07-29T06:15:31;8.80;;;2.17;;
18693;SDS011;9477;51.414;10.362;2022-07-29T06:17:34;5.53;;;2.07;;
18693;SDS011;9477;51.414;10.362;2022-07-29T06:19:38;5.37;;;1.67;;
18693;SDS011;9477;51.414;10.362;2022-07-29T06:21:41;4.70;;;1.50;;
18693;SDS011;9477;51.414;10.362;2022-07-29T06:23:45;5.67;;;1.67;;
18693;SDS011;9477;51.414;10.362;2022-07-29T06:25:47;6.37;;;1.70;;
18693;SDS011;9477;51.414;10.362;2022-07-29T06:27:52;7.03;;;1.90;;
18693;SDS011;9477;51.414;10.362;2022-07-29T06:29:55;6.50;;;1.73;;
18693;SDS011;9477;51.414;10.362;2022-07-29T06:31:59;8.60;;;2.10;;
18693;SDS011;9477;51.414;10.362;2022-07-29T06:34:02;7.70;;;1.90;;
18693;SDS011;9477;51.414;10.362;2022-07-29T06:36:05;3.93;;;2.10;;
18693;SDS011;9477;51.414;10.362;2022-07-29T06:38:08;4.60;;;1.90;;
18693;SDS011;9477;51.414;10.362;2022-07-29T06:40:31;8.60;;;1.63;;
18693;SDS011;9477;51.414;10.362;2022-07-29T06:42:53;4.33;;;1.80;;
18693;SDS011;9477;51.414;10.362;2022-07-29T06:44:56;7.03;;;2.10;;
18693;SDS011;9477;51.414;10.362;2022-07-29T06:46:59;4.37;;;1.63;;
18693;SDS011;9477;51.414;10.362;2022-07-29T06:49:02;6.13;;;1.80;;
18693;SDS011;9477;51.414;10.362;2022-07-29T06:51:06;3.20;;;1.80;;
18693;SDS011;9477;51.414;10.362;2022-07-29T06:53:08;4.77;;;1.70;;
18693;SDS011;9477;51.414;10.362;2022-07-29T06:55:12;5.13;;;1.80;;
18693;SDS011;9477;51.414;10.362;2022-07-29T06:57:25;8.10;;;1.90;;
18693;SDS011;9477;51.414;10.362;2022-07-29T06:59:29;9.53;;;1.83;;
18693;SDS011;9477;51.414;10.362;2022-07-29T07:01:36;6.97;;;1.80;;
18693;SDS011;9477;51.414;10.362;2022-07-29T07:03:40;5.60;;;1.90;;
18693;SDS011;9477;51.414;10.362;2022-07-29T07:05:43;7.77;;;1.80;;
18693;SDS011;9477;51.414;10.362;2022-07-29T07:07:46;4.77;;;1.87;;
18693;SDS011;9477;51.414;10.362;2022-07-29T07:09:49;7.13;;;1.90;;
18693;SDS011;9477;51.414;10.362;2022-07-29T07:11:52;3.17;;;1.70;;
18693;SDS011;9477;51.414;10.362;2022-07-29T07:13:54;8.23;;;2.00;;
18693;SDS011;9477;51.414;10.362;2022-07-29T07:16:05;10.73;;;2.20;;
18693;SDS011;9477;51.414;10.362;2022-07-29T07:18:08;6.57;;;1.77;;
18693;SDS011;9477;51.414;10.362;2022-07-29T07:20:10;8.30;;;1.77;;
18693;SDS011;9477;51.414;10.362;2022-07-29T07:22:13;8.13;;;2.13;;
18693;SDS011;9477;51.414;10.362;2022-07-29T07:24:16;6.40;;;2.03;;
18693;SDS011;9477;51.414;10.362;2022-07-29T07:26:19;6.13;;;1.83;;
18693;SDS011;9477;51.414;10.362;2022-07-29T07:28:22;3.03;;;1.60;;
18693;SDS011;9477;51.414;10.362;2022-07-29T07:30:25;7.53;;;2.13;;
18693;SDS011;9477;51.414;10.362;2022-07-29T07:32:29;7.30;;;2.00;;
18693;SDS011;9477;51.414;10.362;2022-07-29T07:34:33;5.57;;;2.00;;
18693;SDS011;9477;51.414;10.362;2022-07-29T07:36:36;9.73;;;1.90;;
18693;SDS011;9477;51.414;10.362;2022-07-29T07:38:39;4.97;;;1.73;;
18693;SDS011;9477;51.414;10.362;2022-07-29T07:40:42;5.23;;;1.90;;
18693;SDS011;9477;51.414;10.362;2022-07-29T07:42:47;9.37;;;2.10;;
18693;SDS011;9477;51.414;10.362;2022-07-29T07:44:50;8.47;;;1.97;;
18693;SDS011;9477;51.414;10.362;2022-07-29T07:47:13;13.03;;;2.30;;
18693;SDS011;9477;51.414;10.362;2022-07-29T07:49:19;6.60;;;2.40;;
18693;SDS011;9477;51.414;10.362;2022-07-29T07:51:22;7.37;;;2.27;;
18693;SDS011;9477;51.414;10.362;2022-07-29T07:53:25;8.97;;;2.20;;
18693;SDS011;9477;51.414;10.362;2022-07-29T07:55:28;7.73;;;2.57;;
18693;SDS011;9477;51.414;10.362;2022-07-29T07:57:51;7.47;;;2.53;;
18693;SDS011;9477;51.414;10.362;2022-07-29T07:59:53;6.17;;;2.50;;
18693;SDS011;9477;51.414;10.362;2022-07-29T08:01:56;11.37;;;2.40;;
18693;SDS011;9477;51.414;10.362;2022-07-29T08:03:59;13.27;;;2.50;;
18693;SDS011;9477;51.414;10.362;2022-07-29T08:06:04;10.50;;;2.80;;
18693;SDS011;9477;51.414;10.362;2022-07-29T08:08:07;7.90;;;2.47;;
18693;SDS011;9477;51.414;10.362;2022-07-29T08:10:10;11.00;;;2.80;;
18693;SDS011;9477;51.414;10.362;2022-07-29T08:12:13;7.57;;;2.50;;
18693;SDS011;9477;51.414;10.362;2022-07-29T08:14:15;4.78;;;2.35;;
18693;SDS011;9477;51.414;10.362;2022-07-29T08:16:19;8.07;;;2.70;;
18693;SDS011;9477;51.414;10.362;2022-07-29T08:18:22;5.78;;;2.30;;
18693;SDS011;9477;51.414;10.362;2022-07-29T08:20:25;4.50;;;2.42;;
18693;SDS011;9477;51.414;10.362;2022-07-29T08:22:29;7.30;;;2.50;;
18693;SDS011;9477;51.414;10.362;2022-07-29T08:24:32;6.33;;;2.50;;
18693;SDS011;9477;51.414;10.362;2022-07-29T08:26:54;6.53;;;2.50;;
18693;SDS011;9477;51.414;10.362;2022-07-29T08:28:56;7.20;;;2.50;;
18693;SDS011;9477;51.414;10.362;2022-07-29T08:30:59;7.65;;;2.80;;
18693;SDS011;9477;51.414;10.362;2022-07-29T08:33:02;10.25;;;2.47;;
18693;SDS011;9477;51.414;10.362;2022-07-29T08:35:05;8.95;;;2.58;;
18693;SDS011;9477;51.414;10.362;2022-07-29T08:37:09;6.78;;;2.63;;
18693;SDS011;9477;51.414;10.362;2022-07-29T08:39:13;6.07;;;2.43;;
18693;SDS011;9477;51.414;10.362;2022-07-29T08:41:16;14.52;;;2.78;;
18693;SDS011;9477;51.414;10.362;2022-07-29T08:43:20;7.13;;;2.67;;
18693;SDS011;9477;51.414;10.362;2022-07-29T08:45:23;10.75;;;2.75;;
18693;SDS011;9477;51.414;10.362;2022-07-29T08:47:27;10.90;;;3.00;;
18693;SDS011;9477;51.414;10.362;2022-07-29T08:49:30;7.90;;;2.53;;
18693;SDS011;9477;51.414;10.362;2022-07-29T08:51:35;11.57;;;2.63;;
18693;SDS011;9477;51.414;10.362;2022-07-29T08:53:50;7.95;;;3.03;;
18693;SDS011;9477;51.414;10.362;2022-07-29T08:55:54;7.45;;;2.85;;
18693;SDS011;9477;51.414;10.362;2022-07-29T08:57:57;7.55;;;2.58;;
18693;SDS011;9477;51.414;10.362;2022-07-29T09:00:03;8.75;;;2.42;;
18693;SDS011;9477;51.414;10.362;2022-07-29T09:02:15;6.68;;;2.47;;
18693;SDS011;9477;51.414;10.362;2022-07-29T09:04:22;7.32;;;2.60;;
18693;SDS011;9477;51.414;10.362;2022-07-29T09:06:30;7.55;;;2.67;;
18693;SDS011;9477;51.414;10.362;2022-07-29T09:08:36;9.02;;;2.33;;
18693;SDS011;9477;51.414;10.362;2022-07-29T09:10:39;6.15;;;2.83;;
18693;SDS011;9477;51.414;10.362;2022-07-29T09:12:43;4.90;;;2.47;;
18693;SDS011;9477;51.414;10.362;2022-07-29T09:14:46;7.60;;;2.55;;
18693;SDS011;9477;51.414;10.362;2022-07-29T09:16:51;7.80;;;2.43;;
18693;SDS011;9477;51.414;10.362;2022-07-29T09:18:55;5.72;;;2.50;;
18693;SDS011;9477;51.414;10.362;2022-07-29T09:20:58;4.68;;;2.75;;
18693;SDS011;9477;51.414;10.362;2022-07-29T09:23:18;15.38;;;3.05;;
18693;SDS011;9477;51.414;10.362;2022-07-29T09:25:34;9.68;;;2.50;;
18693;SDS011;9477;51.414;10.362;2022-07-29T09:27:37;5.90;;;2.25;;
18693;SDS011;9477;51.414;10.362;2022-07-29T09:29:41;8.95;;;3.00;;
18693;SDS011;9477;51.414;10.362;2022-07-29T09:31:45;8.55;;;2.63;;
18693;SDS011;9477;51.414;10.362;2022-07-29T09:33:49;6.50;;;2.70;;
18693;SDS011;9477;51.414;10.362;2022-07-29T09:36:02;8.30;;;2.50;;
18693;SDS011;9477;51.414;10.362;2022-07-29T09:38:10;10.48;;;2.28;;
18693;SDS011;9477;51.414;10.362;2022-07-29T09:40:14;18.15;;;2.92;;
18693;SDS011;9477;51.414;10.362;2022-07-29T09:42:27;7.63;;;2.88;;
18693;SDS011;9477;51.414;10.362;2022-07-29T09:44:47;10.38;;;2.53;;
18693;SDS011;9477;51.414;10.362;2022-07-29T09:46:57;4.55;;;2.63;;
18693;SDS011;9477;51.414;10.362;2022-07-29T09:49:07;8.77;;;2.80;;
18693;SDS011;9477;51.414;10.362;2022-07-29T09:51:17;5.25;;;2.50;;
18693;SDS011;9477;51.414;10.362;2022-07-29T09:53:31;9.32;;;2.63;;
18693;SDS011;9477;51.414;10.362;2022-07-29T09:55:45;6.20;;;2.30;;
18693;SDS011;9477;51.414;10.362;2022-07-29T09:57:49;7.97;;;2.78;;
18693;SDS011;9477;51.414;10.362;2022-07-29T09:59:57;5.95;;;2.65;;
18693;SDS011;9477;51.414;10.362;2022-07-29T10:02:01;7.30;;;2.50;;
18693;SDS011;9477;51.414;10.362;2022-07-29T10:04:18;7.80;;;2.47;;
18693;SDS011;9477;51.414;10.362;2022-07-29T10:06:21;10.50;;;2.53;;
18693;SDS011;9477;51.414;10.362;2022-07-29T10:08:24;9.23;;;2.40;;
18693;SDS011;9477;51.414;10.362;2022-07-29T10:10:30;8.23;;;2.92;;
18693;SDS011;9477;51.414;10.362;2022-07-29T10:12:34;5.57;;;2.30;;
18693;SDS011;9477;51.414;10.362;2022-07-29T10:14:51;7.55;;;2.55;;
18693;SDS011;9477;51.414;10.362;2022-07-29T10:16:56;4.35;;;2.40;;
18693;SDS011;9477;51.414;10.362;2022-07-29T10:18:59;4.32;;;2.35;;
18693;SDS011;9477;51.414;10.362;2022-07-29T10:21:03;6.25;;;2.63;;
18693;SDS011;9477;51.414;10.362;2022-07-29T10:23:06;4.40;;;2.40;;
18693;SDS011;9477;51.414;10.362;2022-07-29T10:25:09;6.35;;;2.53;;
18693;SDS011;9477;51.414;10.362;2022-07-29T10:27:12;8.73;;;2.70;;
18693;SDS011;9477;51.414;10.362;2022-07-29T10:29:15;7.10;;;2.45;;
18693;SDS011;9477;51.414;10.362;2022-07-29T10:31:22;5.40;;;2.70;;
18693;SDS011;9477;51.414;10.362;2022-07-29T10:33:36;6.82;;;2.63;;
18693;SDS011;9477;51.414;10.362;2022-07-29T10:36:04;8.25;;;2.83;;
18693;SDS011;9477;51.414;10.362;2022-07-29T10:38:27;8.57;;;2.58;;
18693;SDS011;9477;51.414;10.362;2022-07-29T10:40:49;9.25;;;2.53;;
18693;SDS011;9477;51.414;10.362;2022-07-29T10:43:21;7.43;;;2.55;;
18693;SDS011;9477;51.414;10.362;2022-07-29T10:45:25;9.10;;;2.38;;
18693;SDS011;9477;51.414;10.362;2022-07-29T10:47:31;6.47;;;2.53;;
18693;SDS011;9477;51.414;10.362;2022-07-29T10:49:37;6.90;;;2.30;;
18693;SDS011;9477;51.414;10.362;2022-07-29T10:51:51;6.40;;;2.60;;
18693;SDS011;9477;51.414;10.362;2022-07-29T10:54:02;4.95;;;2.50;;
18693;SDS011;9477;51.414;10.362;2022-07-29T10:56:08;4.53;;;2.35;;
18693;SDS011;9477;51.414;10.362;2022-07-29T10:58:26;7.80;;;2.25;;
18693;SDS011;9477;51.414;10.362;2022-07-29T11:00:32;5.63;;;2.30;;
18693;SDS011;9477;51.414;10.362;2022-07-29T11:02:42;3.75;;;2.33;;
18693;SDS011;9477;51.414;10.362;2022-07-29T11:05:00;7.35;;;2.28;;
18693;SDS011;9477;51.414;10.362;2022-07-29T11:07:07;6.40;;;2.40;;
18693;SDS011;9477;51.414;10.362;2022-07-29T11:09:17;8.05;;;2.47;;
18693;SDS011;9477;51.414;10.362;2022-07-29T11:11:37;7.82;;;2.40;;
18693;SDS011;9477;51.414;10.362;2022-07-29T11:13:51;5.07;;;2.17;;
18693;SDS011;9477;51.414;10.362;2022-07-29T11:15:57;4.90;;;2.40;;
18693;SDS011;9477;51.414;10.362;2022-07-29T11:18:04;7.05;;;2.47;;
18693;SDS011;9477;51.414;10.362;2022-07-29T11:20:31;7.75;;;2.13;;
18693;SDS011;9477;51.414;10.362;2022-07-29T11:22:38;7.30;;;2.30;;
18693;SDS011;9477;51.414;10.362;2022-07-29T11:24:47;3.95;;;2.03;;
18693;SDS011;9477;51.414;10.362;2022-07-29T11:27:17;6.43;;;2.20;;
18693;SDS011;9477;51.414;10.362;2022-07-29T11:29:21;4.95;;;2.30;;
18693;SDS011;9477;51.414;10.362;2022-07-29T11:31:37;10.88;;;2.45;;
18693;SDS011;9477;51.414;10.362;2022-07-29T11:33:42;6.75;;;2.20;;
18693;SDS011;9477;51.414;10.362;2022-07-29T11:36:11;8.50;;;2.42;;
18693;SDS011;9477;51.414;10.362;2022-07-29T11:38:24;4.85;;;2.33;;
18693;SDS011;9477;51.414;10.362;2022-07-29T11:40:29;6.47;;;2.25;;
18693;SDS011;9477;51.414;10.362;2022-07-29T11:42:41;5.32;;;2.38;;
18693;SDS011;9477;51.414;10.362;2022-07-29T11:44:55;5.82;;;2.22;;
18693;SDS011;9477;51.414;10.362;2022-07-29T11:47:04;3.55;;;2.10;;
18693;SDS011;9477;51.414;10.362;2022-07-29T11:49:11;5.22;;;2.25;;
18693;SDS011;9477;51.414;10.362;2022-07-29T11:51:17;3.13;;;2.10;;
18693;SDS011;9477;51.414;10.362;2022-07-29T11:53:33;5.50;;;2.35;;
18693;SDS011;9477;51.414;10.362;2022-07-29T11:55:37;6.95;;;2.20;;
18693;SDS011;9477;51.414;10.362;2022-07-29T11:57:52;5.80;;;2.40;;
18693;SDS011;9477;51.414;10.362;2022-07-29T12:00:05;4.47;;;2.15;;
18693;SDS011;9477;51.414;10.362;2022-07-29T12:02:15;5.90;;;2.10;;
18693;SDS011;9477;51.414;10.362;2022-07-29T12:04:47;7.60;;;2.05;;
18693;SDS011;9477;51.414;10.362;2022-07-29T12:06:53;8.75;;;2.17;;
18693;SDS011;9477;51.414;10.362;2022-07-29T12:09:00;7.00;;;2.00;;
18693;SDS011;9477;51.414;10.362;2022-07-29T12:11:15;4.90;;;1.95;;
18693;SDS011;9477;51.414;10.362;2022-07-29T12:13:22;5.57;;;1.95;;
18693;SDS011;9477;51.414;10.362;2022-07-29T12:15:38;6.65;;;2.40;;
18693;SDS011;9477;51.414;10.362;2022-07-29T12:17:47;4.18;;;2.20;;
18693;SDS011;9477;51.414;10.362;2022-07-29T12:19:50;4.07;;;1.88;;
18693;SDS011;9477;51.414;10.362;2022-07-29T12:21:54;6.00;;;2.10;;
18693;SDS011;9477;51.414;10.362;2022-07-29T12:24:00;4.47;;;2.33;;
18693;SDS011;9477;51.414;10.362;2022-07-29T12:26:09;4.05;;;2.03;;
18693;SDS011;9477;51.414;10.362;2022-07-29T12:28:22;6.13;;;2.13;;
18693;SDS011;9477;51.414;10.362;2022-07-29T12:30:35;6.95;;;2.30;;
18693;SDS011;9477;51.414;10.362;2022-07-29T12:32:42;5.15;;;2.28;;
18693;SDS011;9477;51.414;10.362;2022-07-29T12:34:46;5.55;;;2.15;;
18693;SDS011;9477;51.414;10.362;2022-07-29T12:36:49;9.18;;;2.17;;
18693;SDS011;9477;51.414;10.362;2022-07-29T12:38:54;7.45;;;2.20;;
18693;SDS011;9477;51.414;10.362;2022-07-29T12:40:57;3.67;;;2.05;;
18693;SDS011;9477;51.414;10.362;2022-07-29T12:43:09;4.95;;;1.98;;